sensor_id;sensor_type;location;lat;lon;timestamp;pressure;altitude;pressure_sealevel;temperature;humidity
61359;BME280;47228;46.762;23.598;2023-12-07T00:00:56;96957.42;;;2.11;82.65
61359;BME280;47228;46.762;23.598;2023-12-07T00:03:31;96958.92;;;2.12;82.80
61359;BME280;47228;46.762;23.598;2023-12-07T00:06:00;96959.68;;;2.15;83.16
61359;BME280;47228;46.762;23.598;2023-12-07T00:08:28;96956.95;;;2.16;82.96
61359;BME280;47228;46.762;23.598;2023-12-07T00:10:56;96955.04;;;2.15;82.77
61359;BME280;47228;46.762;23.598;2023-12-07T00:13:24;96955.24;;;2.17;83.03
61359;BME280;47228;46.762;23.598;2023-12-07T00:15:52;96953.71;;;2.18;82.86
61359;BME280;47228;46.762;23.598;2023-12-07T00:18:21;96957.17;;;2.18;82.90
61359;BME280;47228;46.762;23.598;2023-12-07T00:20:49;96960.79;;;2.21;82.98
61359;BME280;47228;46.762;23.598;2023-12-07T00:23:17;96960.96;;;2.23;83.11
61359;BME280;47228;46.762;23.598;2023-12-07T00:25:45;96963.06;;;2.25;83.28
61359;BME280;47228;46.762;23.598;2023-12-07T00:28:13;96961.63;;;2.27;83.34
61359;BME280;47228;46.762;23.598;2023-12-07T00:30:42;96959.96;;;2.29;83.40
61359;BME280;47228;46.762;23.598;2023-12-07T00:33:10;96958.09;;;2.30;83.26
61359;BME280;47228;46.762;23.598;2023-12-07T00:35:38;96962.36;;;2.31;83.42
61359;BME280;47228;46.762;23.598;2023-12-07T00:38:07;96968.81;;;2.31;83.18
61359;BME280;47228;46.762;23.598;2023-12-07T00:40:36;96971.75;;;2.31;83.38
61359;BME280;47228;46.762;23.598;2023-12-07T00:43:06;96976.02;;;2.34;83.68
61359;BME280;47228;46.762;23.598;2023-12-07T00:45:35;96976.52;;;2.38;83.89
61359;BME280;47228;46.762;23.598;2023-12-07T00:48:04;96978.56;;;2.40;83.63
61359;BME280;47228;46.762;23.598;2023-12-07T00:50:32;96982.02;;;2.42;83.80
61359;BME280;47228;46.762;23.598;2023-12-07T00:53:00;96983.41;;;2.42;83.46
61359;BME280;47228;46.762;23.598;2023-12-07T00:55:28;96979.17;;;2.39;83.33
61359;BME280;47228;46.762;23.598;2023-12-07T00:57:57;96978.80;;;2.34;83.18
61359;BME280;47228;46.762;23.598;2023-12-07T01:00:28;96972.39;;;2.32;83.45
61359;BME280;47228;46.762;23.598;2023-12-07T01:02:56;96973.11;;;2.32;83.48
61359;BME280;47228;46.762;23.598;2023-12-07T01:05:24;96969.84;;;2.29;83.24
61359;BME280;47228;46.762;23.598;2023-12-07T01:07:52;96968.94;;;2.30;83.64
61359;BME280;47228;46.762;23.598;2023-12-07T01:10:20;96970.27;;;2.32;84.02
61359;BME280;47228;46.762;23.598;2023-12-07T01:12:48;96967.86;;;2.34;84.01
61359;BME280;47228;46.762;23.598;2023-12-07T01:15:17;96967.08;;;2.35;83.84
61359;BME280;47228;46.762;23.598;2023-12-07T01:17:45;96966.62;;;2.34;83.82
61359;BME280;47228;46.762;23.598;2023-12-07T01:20:13;96963.90;;;2.35;84.18
61359;BME280;47228;46.762;23.598;2023-12-07T01:22:41;96962.60;;;2.37;84.39
61359;BME280;47228;46.762;23.598;2023-12-07T01:25:09;96965.58;;;2.39;84.07
61359;BME280;47228;46.762;23.598;2023-12-07T01:27:38;96961.70;;;2.39;84.07
61359;BME280;47228;46.762;23.598;2023-12-07T01:30:07;96959.28;;;2.39;84.06
61359;BME280;47228;46.762;23.598;2023-12-07T01:32:35;96961.31;;;2.39;84.18
61359;BME280;47228;46.762;23.598;2023-12-07T01:35:03;96959.45;;;2.39;84.09
61359;BME280;47228;46.762;23.598;2023-12-07T01:37:32;96961.09;;;2.39;83.93
61359;BME280;47228;46.762;23.598;2023-12-07T01:40:00;96959.31;;;2.35;83.62
61359;BME280;47228;46.762;23.598;2023-12-07T01:42:28;96957.77;;;2.31;83.67
61359;BME280;47228;46.762;23.598;2023-12-07T01:44:56;96955.70;;;2.28;83.79
61359;BME280;47228;46.762;23.598;2023-12-07T01:47:24;96956.59;;;2.28;84.39
61359;BME280;47228;46.762;23.598;2023-12-07T01:49:52;96952.95;;;2.29;84.49
61359;BME280;47228;46.762;23.598;2023-12-07T01:52:22;96953.90;;;2.30;84.49
61359;BME280;47228;46.762;23.598;2023-12-07T01:54:53;96956.73;;;2.30;84.31
61359;BME280;47228;46.762;23.598;2023-12-07T01:57:22;96953.58;;;2.30;84.38
61359;BME280;47228;46.762;23.598;2023-12-07T01:59:50;96952.36;;;2.32;84.68
61359;BME280;47228;46.762;23.598;2023-12-07T02:02:19;96956.70;;;2.32;84.66
61359;BME280;47228;46.762;23.598;2023-12-07T02:04:47;96954.35;;;2.32;84.66
61359;BME280;47228;46.762;23.598;2023-12-07T02:07:15;96952.68;;;2.33;84.66
61359;BME280;47228;46.762;23.598;2023-12-07T02:09:44;96954.53;;;2.34;84.82
61359;BME280;47228;46.762;23.598;2023-12-07T02:12:12;96952.99;;;2.36;84.93
61359;BME280;47228;46.762;23.598;2023-12-07T02:14:41;96949.67;;;2.36;84.79
61359;BME280;47228;46.762;23.598;2023-12-07T02:19:52;96951.00;;;2.35;84.75
61359;BME280;47228;46.762;23.598;2023-12-07T02:22:37;96951.80;;;2.33;84.76
61359;BME280;47228;46.762;23.598;2023-12-07T02:25:09;96953.80;;;2.32;84.72
61359;BME280;47228;46.762;23.598;2023-12-07T02:27:43;96954.14;;;2.33;84.85
61359;BME280;47228;46.762;23.598;2023-12-07T02:30:14;96956.59;;;2.31;84.67
61359;BME280;47228;46.762;23.598;2023-12-07T02:32:44;96960.39;;;2.30;84.76
61359;BME280;47228;46.762;23.598;2023-12-07T02:35:14;96961.73;;;2.29;84.64
61359;BME280;47228;46.762;23.598;2023-12-07T02:37:45;96962.05;;;2.29;85.11
61359;BME280;47228;46.762;23.598;2023-12-07T02:40:18;96964.61;;;2.33;85.73
61359;BME280;47228;46.762;23.598;2023-12-07T02:42:48;96970.59;;;2.38;85.70
61359;BME280;47228;46.762;23.598;2023-12-07T02:45:17;96968.69;;;2.39;85.12
61359;BME280;47228;46.762;23.598;2023-12-07T02:47:45;96970.01;;;2.40;85.14
61359;BME280;47228;46.762;23.598;2023-12-07T02:50:14;96971.55;;;2.40;84.94
61359;BME280;47228;46.762;23.598;2023-12-07T02:52:42;96971.85;;;2.42;85.25
61359;BME280;47228;46.762;23.598;2023-12-07T02:55:10;96975.23;;;2.45;85.32
61359;BME280;47228;46.762;23.598;2023-12-07T02:57:39;96973.62;;;2.46;85.15
61359;BME280;47228;46.762;23.598;2023-12-07T03:00:07;96974.52;;;2.45;84.88
61359;BME280;47228;46.762;23.598;2023-12-07T03:02:39;96975.81;;;2.45;84.94
61359;BME280;47228;46.762;23.598;2023-12-07T03:05:08;96976.22;;;2.44;84.84
61359;BME280;47228;46.762;23.598;2023-12-07T03:07:36;96974.11;;;2.44;84.95
61359;BME280;47228;46.762;23.598;2023-12-07T03:10:05;96970.37;;;2.43;84.89
61359;BME280;47228;46.762;23.598;2023-12-07T03:12:33;96973.43;;;2.44;85.04
61359;BME280;47228;46.762;23.598;2023-12-07T03:15:01;96970.68;;;2.47;85.36
61359;BME280;47228;46.762;23.598;2023-12-07T03:17:29;96972.06;;;2.51;85.45
61359;BME280;47228;46.762;23.598;2023-12-07T03:19:57;96976.23;;;2.54;85.53
61359;BME280;47228;46.762;23.598;2023-12-07T03:22:25;96977.77;;;2.56;85.07
61359;BME280;47228;46.762;23.598;2023-12-07T03:24:54;96977.90;;;2.55;84.83
61359;BME280;47228;46.762;23.598;2023-12-07T03:27:22;96976.87;;;2.53;84.64
61359;BME280;47228;46.762;23.598;2023-12-07T03:29:50;96975.33;;;2.50;84.51
61359;BME280;47228;46.762;23.598;2023-12-07T03:32:19;96974.90;;;2.47;84.37
61359;BME280;47228;46.762;23.598;2023-12-07T03:34:47;96974.05;;;2.45;84.49
61359;BME280;47228;46.762;23.598;2023-12-07T03:37:15;96972.59;;;2.42;84.42
61359;BME280;47228;46.762;23.598;2023-12-07T03:39:44;96971.29;;;2.40;84.71
61359;BME280;47228;46.762;23.598;2023-12-07T03:42:12;96980.23;;;2.37;84.71
61359;BME280;47228;46.762;23.598;2023-12-07T03:45:00;96981.98;;;2.37;84.98
61359;BME280;47228;46.762;23.598;2023-12-07T03:47:28;96983.10;;;2.37;84.94
61359;BME280;47228;46.762;23.598;2023-12-07T03:49:56;96986.11;;;2.37;85.09
61359;BME280;47228;46.762;23.598;2023-12-07T03:52:24;96991.46;;;2.37;85.28
61359;BME280;47228;46.762;23.598;2023-12-07T03:54:53;96994.18;;;2.36;84.89
61359;BME280;47228;46.762;23.598;2023-12-07T03:57:21;96997.33;;;2.35;85.21
61359;BME280;47228;46.762;23.598;2023-12-07T03:59:49;97001.69;;;2.36;85.49
61359;BME280;47228;46.762;23.598;2023-12-07T04:02:17;97001.48;;;2.38;85.49
61359;BME280;47228;46.762;23.598;2023-12-07T04:04:46;97005.45;;;2.40;85.60
61359;BME280;47228;46.762;23.598;2023-12-07T04:07:14;97005.59;;;2.42;85.56
61359;BME280;47228;46.762;23.598;2023-12-07T04:09:42;96997.56;;;2.44;85.59
61359;BME280;47228;46.762;23.598;2023-12-07T04:12:10;97000.30;;;2.48;85.98
61359;BME280;47228;46.762;23.598;2023-12-07T04:14:38;97001.39;;;2.51;85.68
61359;BME280;47228;46.762;23.598;2023-12-07T04:17:06;97001.40;;;2.54;85.84
61359;BME280;47228;46.762;23.598;2023-12-07T04:19:35;97002.14;;;2.56;85.58
61359;BME280;47228;46.762;23.598;2023-12-07T04:22:03;97004.40;;;2.54;85.07
61359;BME280;47228;46.762;23.598;2023-12-07T04:24:34;97002.86;;;2.50;84.87
61359;BME280;47228;46.762;23.598;2023-12-07T04:27:03;97002.21;;;2.48;84.97
61359;BME280;47228;46.762;23.598;2023-12-07T04:29:31;97002.00;;;2.47;84.83
61359;BME280;47228;46.762;23.598;2023-12-07T04:32:00;97003.24;;;2.47;85.13
61359;BME280;47228;46.762;23.598;2023-12-07T04:34:28;97001.84;;;2.47;85.11
61359;BME280;47228;46.762;23.598;2023-12-07T04:36:56;97004.80;;;2.47;85.10
61359;BME280;47228;46.762;23.598;2023-12-07T04:39:24;97006.92;;;2.48;85.57
61359;BME280;47228;46.762;23.598;2023-12-07T04:41:53;97009.29;;;2.51;85.74
61359;BME280;47228;46.762;23.598;2023-12-07T04:44:21;97012.10;;;2.52;85.66
61359;BME280;47228;46.762;23.598;2023-12-07T04:46:49;97015.88;;;2.55;85.64
61359;BME280;47228;46.762;23.598;2023-12-07T04:49:17;97015.98;;;2.57;85.56
61359;BME280;47228;46.762;23.598;2023-12-07T04:51:45;97015.73;;;2.59;85.59
61359;BME280;47228;46.762;23.598;2023-12-07T04:54:14;97017.37;;;2.61;85.56
61359;BME280;47228;46.762;23.598;2023-12-07T04:56:46;97019.15;;;2.62;85.30
61359;BME280;47228;46.762;23.598;2023-12-07T04:59:14;97022.36;;;2.61;84.94
61359;BME280;47228;46.762;23.598;2023-12-07T05:01:43;97025.85;;;2.58;84.68
61359;BME280;47228;46.762;23.598;2023-12-07T05:04:11;97030.90;;;2.56;84.76
61359;BME280;47228;46.762;23.598;2023-12-07T05:06:39;97029.70;;;2.54;84.90
61359;BME280;47228;46.762;23.598;2023-12-07T05:09:07;97032.98;;;2.52;84.70
61359;BME280;47228;46.762;23.598;2023-12-07T05:11:39;97033.64;;;2.50;84.86
61359;BME280;47228;46.762;23.598;2023-12-07T05:14:07;97034.66;;;2.49;84.96
61359;BME280;47228;46.762;23.598;2023-12-07T05:16:35;97029.61;;;2.49;85.18
61359;BME280;47228;46.762;23.598;2023-12-07T05:19:03;97028.39;;;2.49;85.09
61359;BME280;47228;46.762;23.598;2023-12-07T05:21:32;97031.29;;;2.48;85.08
61359;BME280;47228;46.762;23.598;2023-12-07T05:24:00;97034.51;;;2.45;84.91
61359;BME280;47228;46.762;23.598;2023-12-07T05:26:28;97032.10;;;2.43;84.90
61359;BME280;47228;46.762;23.598;2023-12-07T05:28:57;97043.08;;;2.40;84.77
61359;BME280;47228;46.762;23.598;2023-12-07T05:31:27;97043.56;;;2.37;84.96
61359;BME280;47228;46.762;23.598;2023-12-07T05:33:55;97045.06;;;2.38;85.20
61359;BME280;47228;46.762;23.598;2023-12-07T05:36:24;97045.89;;;2.38;85.24
61359;BME280;47228;46.762;23.598;2023-12-07T05:38:52;97044.45;;;2.40;85.51
61359;BME280;47228;46.762;23.598;2023-12-07T05:41:20;97042.44;;;2.43;85.40
61359;BME280;47228;46.762;23.598;2023-12-07T05:43:48;97046.95;;;2.46;85.69
61359;BME280;47228;46.762;23.598;2023-12-07T05:46:16;97050.77;;;2.49;85.46
61359;BME280;47228;46.762;23.598;2023-12-07T05:48:45;97053.13;;;2.49;85.43
61359;BME280;47228;46.762;23.598;2023-12-07T05:51:15;97056.84;;;2.49;84.99
61359;BME280;47228;46.762;23.598;2023-12-07T05:53:44;97056.20;;;2.47;84.86
61359;BME280;47228;46.762;23.598;2023-12-07T05:56:20;97057.26;;;2.47;84.87
61359;BME280;47228;46.762;23.598;2023-12-07T05:58:48;97061.15;;;2.44;84.57
61359;BME280;47228;46.762;23.598;2023-12-07T06:01:17;97060.61;;;2.41;84.58
61359;BME280;47228;46.762;23.598;2023-12-07T06:03:45;97063.48;;;2.37;84.42
61359;BME280;47228;46.762;23.598;2023-12-07T06:06:14;97065.67;;;2.31;84.14
61359;BME280;47228;46.762;23.598;2023-12-07T06:08:42;97066.33;;;2.28;84.38
61359;BME280;47228;46.762;23.598;2023-12-07T06:11:10;97069.69;;;2.26;84.79
61359;BME280;47228;46.762;23.598;2023-12-07T06:13:38;97072.52;;;2.27;85.33
61359;BME280;47228;46.762;23.598;2023-12-07T06:16:06;97072.84;;;2.27;85.40
61359;BME280;47228;46.762;23.598;2023-12-07T06:18:35;97075.27;;;2.27;85.14
61359;BME280;47228;46.762;23.598;2023-12-07T06:21:03;97077.65;;;2.26;85.16
61359;BME280;47228;46.762;23.598;2023-12-07T06:23:31;97079.54;;;2.25;85.25
61359;BME280;47228;46.762;23.598;2023-12-07T06:25:59;97078.86;;;2.23;85.04
61359;BME280;47228;46.762;23.598;2023-12-07T06:28:28;97079.27;;;2.19;84.66
61359;BME280;47228;46.762;23.598;2023-12-07T06:30:56;97083.14;;;2.15;84.68
61359;BME280;47228;46.762;23.598;2023-12-07T06:33:25;97084.06;;;2.10;84.77
61359;BME280;47228;46.762;23.598;2023-12-07T06:35:53;97082.48;;;2.08;85.15
61359;BME280;47228;46.762;23.598;2023-12-07T06:38:21;97084.35;;;2.08;85.38
61359;BME280;47228;46.762;23.598;2023-12-07T06:40:50;97084.75;;;2.08;85.64
61359;BME280;47228;46.762;23.598;2023-12-07T06:43:18;97081.79;;;2.10;86.04
61359;BME280;47228;46.762;23.598;2023-12-07T06:45:46;97086.02;;;2.11;85.59
61359;BME280;47228;46.762;23.598;2023-12-07T06:48:14;97089.98;;;2.12;85.79
61359;BME280;47228;46.762;23.598;2023-12-07T06:50:42;97094.54;;;2.15;86.02
61359;BME280;47228;46.762;23.598;2023-12-07T06:53:10;97100.20;;;2.17;86.11
61359;BME280;47228;46.762;23.598;2023-12-07T06:55:38;97098.98;;;2.21;86.11
61359;BME280;47228;46.762;23.598;2023-12-07T06:58:11;97102.25;;;2.23;86.19
61359;BME280;47228;46.762;23.598;2023-12-07T07:00:40;97101.91;;;2.23;85.85
61359;BME280;47228;46.762;23.598;2023-12-07T07:03:08;97103.40;;;2.24;85.85
61359;BME280;47228;46.762;23.598;2023-12-07T07:05:36;97105.58;;;2.25;85.95
61359;BME280;47228;46.762;23.598;2023-12-07T07:08:04;97107.13;;;2.23;85.75
61359;BME280;47228;46.762;23.598;2023-12-07T07:10:34;97102.67;;;2.24;85.92
61359;BME280;47228;46.762;23.598;2023-12-07T07:13:03;97104.09;;;2.26;85.96
61359;BME280;47228;46.762;23.598;2023-12-07T07:15:34;97103.79;;;2.25;85.55
61359;BME280;47228;46.762;23.598;2023-12-07T07:18:02;97105.83;;;2.26;85.85
61359;BME280;47228;46.762;23.598;2023-12-07T07:20:30;97108.98;;;2.29;86.14
61359;BME280;47228;46.762;23.598;2023-12-07T07:22:58;97110.98;;;2.30;85.65
61359;BME280;47228;46.762;23.598;2023-12-07T07:25:26;97111.84;;;2.29;85.22
61359;BME280;47228;46.762;23.598;2023-12-07T07:27:55;97116.88;;;2.27;85.15
61359;BME280;47228;46.762;23.598;2023-12-07T07:30:23;97116.32;;;2.27;85.81
61359;BME280;47228;46.762;23.598;2023-12-07T07:32:51;97119.40;;;2.30;86.18
61359;BME280;47228;46.762;23.598;2023-12-07T07:35:19;97121.98;;;2.34;86.36
61359;BME280;47228;46.762;23.598;2023-12-07T07:37:47;97125.11;;;2.36;86.09
61359;BME280;47228;46.762;23.598;2023-12-07T07:40:16;97128.16;;;2.38;86.30
61359;BME280;47228;46.762;23.598;2023-12-07T07:42:44;97132.08;;;2.43;86.32
61359;BME280;47228;46.762;23.598;2023-12-07T07:45:13;97133.73;;;2.47;86.17
61359;BME280;47228;46.762;23.598;2023-12-07T07:47:41;97131.91;;;2.48;85.75
61359;BME280;47228;46.762;23.598;2023-12-07T07:50:09;97128.73;;;2.49;85.73
61359;BME280;47228;46.762;23.598;2023-12-07T07:52:38;97134.80;;;2.51;85.89
61359;BME280;47228;46.762;23.598;2023-12-07T07:55:10;97138.61;;;2.52;85.87
61359;BME280;47228;46.762;23.598;2023-12-07T07:57:38;97139.51;;;2.53;85.68
61359;BME280;47228;46.762;23.598;2023-12-07T08:00:07;97138.98;;;2.53;85.70
61359;BME280;47228;46.762;23.598;2023-12-07T08:02:36;97140.92;;;2.54;85.70
61359;BME280;47228;46.762;23.598;2023-12-07T08:05:04;97143.33;;;2.58;85.81
61359;BME280;47228;46.762;23.598;2023-12-07T08:07:33;97146.74;;;2.61;85.59
61359;BME280;47228;46.762;23.598;2023-12-07T08:10:02;97147.85;;;2.60;85.27
61359;BME280;47228;46.762;23.598;2023-12-07T08:12:33;97146.48;;;2.60;85.42
61359;BME280;47228;46.762;23.598;2023-12-07T08:15:01;97144.66;;;2.62;85.69
61359;BME280;47228;46.762;23.598;2023-12-07T08:17:29;97143.91;;;2.63;85.55
61359;BME280;47228;46.762;23.598;2023-12-07T08:19:57;97144.89;;;2.65;85.71
61359;BME280;47228;46.762;23.598;2023-12-07T08:22:27;97146.92;;;2.67;85.71
61359;BME280;47228;46.762;23.598;2023-12-07T08:24:55;97146.58;;;2.70;85.75
61359;BME280;47228;46.762;23.598;2023-12-07T08:27:38;97144.10;;;2.74;85.81
61359;BME280;47228;46.762;23.598;2023-12-07T08:30:06;97145.40;;;2.79;85.82
61359;BME280;47228;46.762;23.598;2023-12-07T08:32:38;97150.44;;;2.84;85.85
61359;BME280;47228;46.762;23.598;2023-12-07T08:35:07;97153.09;;;2.89;86.06
61359;BME280;47228;46.762;23.598;2023-12-07T08:37:37;97151.29;;;2.93;85.72
61359;BME280;47228;46.762;23.598;2023-12-07T08:40:07;97150.50;;;2.95;85.71
61359;BME280;47228;46.762;23.598;2023-12-07T08:42:35;97147.72;;;2.97;85.60
61359;BME280;47228;46.762;23.598;2023-12-07T08:45:04;97152.92;;;2.97;85.47
61359;BME280;47228;46.762;23.598;2023-12-07T08:47:33;97153.14;;;2.97;85.46
61359;BME280;47228;46.762;23.598;2023-12-07T08:50:02;97150.58;;;2.98;85.26
61359;BME280;47228;46.762;23.598;2023-12-07T08:52:30;97154.78;;;2.98;85.10
61359;BME280;47228;46.762;23.598;2023-12-07T08:55:11;97154.34;;;2.95;84.90
61359;BME280;47228;46.762;23.598;2023-12-07T08:57:43;97153.04;;;2.96;85.19
61359;BME280;47228;46.762;23.598;2023-12-07T09:00:12;97154.13;;;2.98;85.23
61359;BME280;47228;46.762;23.598;2023-12-07T09:02:42;97154.74;;;2.99;85.25
61359;BME280;47228;46.762;23.598;2023-12-07T09:05:15;97158.84;;;2.98;85.11
61359;BME280;47228;46.762;23.598;2023-12-07T09:07:43;97156.50;;;2.95;84.66
61359;BME280;47228;46.762;23.598;2023-12-07T09:10:12;97153.67;;;2.89;83.94
61359;BME280;47228;46.762;23.598;2023-12-07T09:12:41;97154.99;;;2.82;84.34
61359;BME280;47228;46.762;23.598;2023-12-07T09:15:09;97153.71;;;2.81;84.69
61359;BME280;47228;46.762;23.598;2023-12-07T09:17:39;97151.05;;;2.78;84.54
61359;BME280;47228;46.762;23.598;2023-12-07T09:20:09;97152.73;;;2.76;84.49
61359;BME280;47228;46.762;23.598;2023-12-07T09:22:46;97152.38;;;2.74;84.72
61359;BME280;47228;46.762;23.598;2023-12-07T09:25:17;97153.00;;;2.73;84.69
61359;BME280;47228;46.762;23.598;2023-12-07T09:27:45;97150.99;;;2.72;84.89
61359;BME280;47228;46.762;23.598;2023-12-07T09:30:14;97153.29;;;2.72;84.91
61359;BME280;47228;46.762;23.598;2023-12-07T09:32:42;97151.53;;;2.68;84.71
61359;BME280;47228;46.762;23.598;2023-12-07T09:35:13;97149.63;;;2.66;85.09
61359;BME280;47228;46.762;23.598;2023-12-07T09:37:49;97147.46;;;2.67;85.10
61359;BME280;47228;46.762;23.598;2023-12-07T09:40:19;97145.95;;;2.65;84.82
61359;BME280;47228;46.762;23.598;2023-12-07T09:42:50;97146.89;;;2.64;85.17
61359;BME280;47228;46.762;23.598;2023-12-07T09:45:19;97146.36;;;2.63;85.11
61359;BME280;47228;46.762;23.598;2023-12-07T09:47:53;97148.78;;;2.61;84.91
61359;BME280;47228;46.762;23.598;2023-12-07T09:50:23;97148.27;;;2.57;84.83
61359;BME280;47228;46.762;23.598;2023-12-07T09:52:53;97148.75;;;2.56;85.30
61359;BME280;47228;46.762;23.598;2023-12-07T09:55:35;97145.48;;;2.55;85.25
61359;BME280;47228;46.762;23.598;2023-12-07T09:58:06;97146.69;;;2.54;85.13
61359;BME280;47228;46.762;23.598;2023-12-07T10:00:37;97147.30;;;2.53;85.31
61359;BME280;47228;46.762;23.598;2023-12-07T10:03:06;97142.96;;;2.51;85.36
61359;BME280;47228;46.762;23.598;2023-12-07T10:05:54;97138.02;;;2.52;85.59
61359;BME280;47228;46.762;23.598;2023-12-07T10:08:31;97138.10;;;2.54;85.91
61359;BME280;47228;46.762;23.598;2023-12-07T10:11:10;97138.50;;;2.56;85.76
61359;BME280;47228;46.762;23.598;2023-12-07T10:13:39;97138.62;;;2.60;86.23
61359;BME280;47228;46.762;23.598;2023-12-07T10:16:12;97136.11;;;2.65;86.36
61359;BME280;47228;46.762;23.598;2023-12-07T10:18:41;97135.84;;;2.71;86.50
61359;BME280;47228;46.762;23.598;2023-12-07T10:21:12;97138.34;;;2.75;86.36
61359;BME280;47228;46.762;23.598;2023-12-07T10:23:42;97138.90;;;2.76;86.09
61359;BME280;47228;46.762;23.598;2023-12-07T10:26:17;97138.69;;;2.80;86.28
61359;BME280;47228;46.762;23.598;2023-12-07T10:28:50;97140.77;;;2.83;86.51
61359;BME280;47228;46.762;23.598;2023-12-07T10:31:23;97146.90;;;2.85;86.15
61359;BME280;47228;46.762;23.598;2023-12-07T10:33:52;97148.98;;;2.81;85.36
61359;BME280;47228;46.762;23.598;2023-12-07T10:36:21;97146.45;;;2.79;85.63
61359;BME280;47228;46.762;23.598;2023-12-07T10:38:49;97146.30;;;2.80;85.98
61359;BME280;47228;46.762;23.598;2023-12-07T10:41:21;97143.95;;;2.82;86.23
61359;BME280;47228;46.762;23.598;2023-12-07T10:43:59;97145.00;;;2.85;86.22
61359;BME280;47228;46.762;23.598;2023-12-07T10:46:28;97145.20;;;2.86;86.09
61359;BME280;47228;46.762;23.598;2023-12-07T10:49:00;97138.48;;;2.88;86.57
61359;BME280;47228;46.762;23.598;2023-12-07T10:54:47;97136.06;;;2.91;86.16
61359;BME280;47228;46.762;23.598;2023-12-07T10:57:19;97134.23;;;2.92;86.27
61359;BME280;47228;46.762;23.598;2023-12-07T10:59:48;97131.71;;;2.93;86.13
61359;BME280;47228;46.762;23.598;2023-12-07T11:02:18;97131.86;;;2.91;85.80
61359;BME280;47228;46.762;23.598;2023-12-07T11:04:48;97128.09;;;2.89;85.43
61359;BME280;47228;46.762;23.598;2023-12-07T11:07:20;97126.02;;;2.87;85.64
61359;BME280;47228;46.762;23.598;2023-12-07T11:10:15;97126.73;;;2.87;85.73
61359;BME280;47228;46.762;23.598;2023-12-07T11:12:53;97131.32;;;2.83;85.16
61359;BME280;47228;46.762;23.598;2023-12-07T11:15:22;97131.38;;;2.78;84.96
61359;BME280;47228;46.762;23.598;2023-12-07T11:17:52;97134.15;;;2.73;85.09
61359;BME280;47228;46.762;23.598;2023-12-07T11:20:44;97129.06;;;2.73;86.03
61359;BME280;47228;46.762;23.598;2023-12-07T11:23:17;97126.95;;;2.75;86.15
61359;BME280;47228;46.762;23.598;2023-12-07T11:25:47;97130.23;;;2.73;85.64
61359;BME280;47228;46.762;23.598;2023-12-07T11:28:16;97135.82;;;2.68;85.48
61359;BME280;47228;46.762;23.598;2023-12-07T11:30:45;97136.92;;;2.64;85.53
61359;BME280;47228;46.762;23.598;2023-12-07T11:33:15;97137.58;;;2.61;85.46
61359;BME280;47228;46.762;23.598;2023-12-07T11:36:16;97141.68;;;2.57;85.73
61359;BME280;47228;46.762;23.598;2023-12-07T11:41:50;97142.43;;;2.56;86.53
61359;BME280;47228;46.762;23.598;2023-12-07T11:44:18;97142.67;;;2.57;86.42
61359;BME280;47228;46.762;23.598;2023-12-07T11:46:46;97142.96;;;2.56;86.46
61359;BME280;47228;46.762;23.598;2023-12-07T11:49:15;97140.43;;;2.55;86.59
61359;BME280;47228;46.762;23.598;2023-12-07T11:51:59;97138.52;;;2.54;86.65
61359;BME280;47228;46.762;23.598;2023-12-07T11:54:27;97139.70;;;2.52;87.09
61359;BME280;47228;46.762;23.598;2023-12-07T11:56:56;97139.26;;;2.53;86.96
61359;BME280;47228;46.762;23.598;2023-12-07T11:59:25;97139.38;;;2.52;86.95
61359;BME280;47228;46.762;23.598;2023-12-07T12:02:01;97144.09;;;2.52;86.96
61359;BME280;47228;46.762;23.598;2023-12-07T12:04:32;97135.79;;;2.51;86.91
61359;BME280;47228;46.762;23.598;2023-12-07T12:07:00;97137.86;;;2.50;86.91
61359;BME280;47228;46.762;23.598;2023-12-07T12:09:28;97135.46;;;2.51;87.30
61359;BME280;47228;46.762;23.598;2023-12-07T12:12:00;97135.02;;;2.55;87.73
61359;BME280;47228;46.762;23.598;2023-12-07T12:14:29;97135.31;;;2.61;88.02
61359;BME280;47228;46.762;23.598;2023-12-07T12:16:57;97138.27;;;2.66;87.98
61359;BME280;47228;46.762;23.598;2023-12-07T12:19:26;97139.48;;;2.72;88.01
61359;BME280;47228;46.762;23.598;2023-12-07T12:22:02;97142.11;;;2.77;87.86
61359;BME280;47228;46.762;23.598;2023-12-07T12:24:35;97139.54;;;2.80;87.71
61359;BME280;47228;46.762;23.598;2023-12-07T12:27:04;97138.72;;;2.82;87.77
61359;BME280;47228;46.762;23.598;2023-12-07T12:29:33;97139.23;;;2.85;87.43
61359;BME280;47228;46.762;23.598;2023-12-07T12:32:03;97143.50;;;2.80;86.79
61359;BME280;47228;46.762;23.598;2023-12-07T12:34:33;97143.73;;;2.78;87.08
61359;BME280;47228;46.762;23.598;2023-12-07T12:37:03;97142.49;;;2.80;87.31
61359;BME280;47228;46.762;23.598;2023-12-07T12:39:34;97141.98;;;2.83;87.47
61359;BME280;47228;46.762;23.598;2023-12-07T12:42:04;97144.48;;;2.86;87.63
61359;BME280;47228;46.762;23.598;2023-12-07T12:44:33;97142.33;;;2.88;87.63
61359;BME280;47228;46.762;23.598;2023-12-07T12:47:06;97139.84;;;2.91;87.50
61359;BME280;47228;46.762;23.598;2023-12-07T12:49:38;97140.75;;;2.89;86.80
61359;BME280;47228;46.762;23.598;2023-12-07T12:52:15;97141.48;;;2.86;86.93
61359;BME280;47228;46.762;23.598;2023-12-07T12:54:47;97142.95;;;2.88;87.37
61359;BME280;47228;46.762;23.598;2023-12-07T12:57:18;97148.59;;;2.90;87.61
61359;BME280;47228;46.762;23.598;2023-12-07T12:59:47;97152.04;;;2.92;87.47
61359;BME280;47228;46.762;23.598;2023-12-07T13:02:16;97156.30;;;2.94;87.12
61359;BME280;47228;46.762;23.598;2023-12-07T13:04:44;97156.27;;;2.91;86.51
61359;BME280;47228;46.762;23.598;2023-12-07T13:07:18;97157.61;;;2.81;85.76
61359;BME280;47228;46.762;23.598;2023-12-07T13:09:47;97161.92;;;2.75;86.13
61359;BME280;47228;46.762;23.598;2023-12-07T13:12:15;97164.04;;;2.73;86.59
61359;BME280;47228;46.762;23.598;2023-12-07T13:14:43;97163.67;;;2.71;86.83
61359;BME280;47228;46.762;23.598;2023-12-07T13:17:17;97164.45;;;2.68;86.74
61359;BME280;47228;46.762;23.598;2023-12-07T13:19:45;97162.83;;;2.64;86.76
61359;BME280;47228;46.762;23.598;2023-12-07T13:22:13;97165.20;;;2.61;86.78